createdAt,value
2023-02-12T00:02:23.430Z,30.17
2023-02-12T00:04:55.605Z,33.35
2023-02-12T00:07:31.269Z,30.00
2023-02-12T00:10:03.766Z,29.55
2023-02-12T00:12:36.253Z,30.77
2023-02-12T00:15:08.862Z,26.33
2023-02-12T00:17:40.854Z,31.10
2023-02-12T00:20:13.027Z,27.10
2023-02-12T00:22:45.004Z,29.60
2023-02-12T00:25:18.904Z,28.83
2023-02-12T00:27:51.062Z,26.70
2023-02-12T00:30:23.104Z,31.55
2023-02-12T00:32:55.253Z,28.90
2023-02-12T00:35:27.432Z,29.50
2023-02-12T00:37:59.444Z,27.98
2023-02-12T00:40:31.510Z,28.35
2023-02-12T00:43:03.692Z,25.80
2023-02-12T00:45:38.088Z,28.13
2023-02-12T00:48:23.447Z,26.08
2023-02-12T00:50:55.539Z,26.73
2023-02-12T00:53:27.872Z,28.80
2023-02-12T00:56:02.150Z,31.42
2023-02-12T00:58:34.650Z,28.02
2023-02-12T01:01:06.836Z,29.35
2023-02-12T01:03:39.189Z,28.90
2023-02-12T01:06:11.312Z,36.80
2023-02-12T01:08:43.332Z,25.33
2023-02-12T01:11:15.526Z,30.48
2023-02-12T01:13:48.031Z,30.58
2023-02-12T01:16:23.783Z,28.30
2023-02-12T01:18:56.357Z,30.05
2023-02-12T01:21:30.721Z,28.65
2023-02-12T01:24:05.202Z,29.55
2023-02-12T01:26:40.334Z,31.25
2023-02-12T01:29:12.392Z,31.75
2023-02-12T01:31:44.671Z,29.50
2023-02-12T01:34:16.965Z,29.52
2023-02-12T01:36:49.148Z,30.85
2023-02-12T01:39:21.248Z,32.17
2023-02-12T01:41:53.587Z,33.75
2023-02-12T01:44:30.152Z,31.02
2023-02-12T01:47:05.938Z,36.33
2023-02-12T01:49:40.184Z,32.45
2023-02-12T01:52:18.241Z,41.00
2023-02-12T01:54:59.137Z,39.97
2023-02-12T01:57:38.550Z,35.33
2023-02-12T02:00:20.092Z,35.78
2023-02-12T02:03:00.273Z,31.75
2023-02-12T02:05:55.925Z,35.63
2023-02-12T02:08:34.621Z,27.45
2023-02-12T02:11:27.021Z,31.70
2023-02-12T02:14:34.655Z,29.98
2023-02-12T02:17:13.312Z,29.25
2023-02-12T02:20:37.048Z,30.33
2023-02-12T02:23:37.893Z,31.58
2023-02-12T02:26:53.861Z,34.22
2023-02-12T02:30:03.899Z,33.97
2023-02-12T02:33:27.017Z,32.22
2023-02-12T02:36:59.208Z,35.17
2023-02-12T02:39:57.950Z,34.42
2023-02-12T02:42:43.899Z,36.72
2023-02-12T02:45:35.592Z,30.77
2023-02-12T02:48:29.297Z,32.55
2023-02-12T02:51:26.979Z,30.88
2023-02-12T02:54:22.021Z,26.30
2023-02-12T02:57:09.901Z,30.30
2023-02-12T03:00:03.955Z,33.50
2023-02-12T03:02:58.224Z,29.23
2023-02-12T03:05:39.957Z,27.35
2023-02-12T03:08:36.030Z,29.98
2023-02-12T03:11:27.647Z,26.38
2023-02-12T03:14:20.977Z,32.10
2023-02-12T03:17:10.306Z,34.78
2023-02-12T03:19:56.609Z,29.33
2023-02-12T03:22:43.197Z,25.95
2023-02-12T03:25:48.922Z,27.60
2023-02-12T03:28:32.019Z,29.40
2023-02-12T03:31:25.409Z,29.95
2023-02-12T03:34:41.281Z,31.70
2023-02-12T03:37:39.469Z,33.00
2023-02-12T03:40:21.932Z,29.35
2023-02-12T03:43:18.258Z,28.55
2023-02-12T03:46:00.991Z,26.00
2023-02-12T03:48:44.429Z,29.77
2023-02-12T03:51:42.738Z,28.00
2023-02-12T03:54:19.950Z,30.80
2023-02-12T03:57:15.822Z,25.40
2023-02-12T03:59:52.809Z,25.35
2023-02-12T04:02:25.974Z,30.35
2023-02-12T04:05:04.106Z,29.02
2023-02-12T04:07:37.741Z,30.85
2023-02-12T04:10:10.195Z,29.88
2023-02-12T04:13:02.711Z,29.58
2023-02-12T04:16:21.693Z,30.45
2023-02-12T04:19:01.602Z,30.73
2023-02-12T04:21:48.924Z,30.73
2023-02-12T04:25:02.695Z,28.05
2023-02-12T04:27:57.579Z,28.90
2023-02-12T04:31:04.724Z,28.25
2023-02-12T04:34:10.019Z,37.40
2023-02-12T04:37:10.562Z,29.70
2023-02-12T04:39:48.138Z,29.65
2023-02-12T04:42:21.127Z,37.17
2023-02-12T04:44:53.514Z,33.30
2023-02-12T04:47:26.381Z,28.25
2023-02-12T04:49:58.503Z,36.10
2023-02-12T04:52:30.573Z,33.53
2023-02-12T04:55:02.622Z,37.70
2023-02-12T04:57:34.796Z,34.13
2023-02-12T05:00:08.553Z,31.98
2023-02-12T05:02:43.794Z,32.05
2023-02-12T05:05:15.981Z,33.60
2023-02-12T05:07:48.535Z,33.38
2023-02-12T05:10:20.738Z,28.15
2023-02-12T05:12:53.745Z,31.35
2023-02-12T05:15:26.354Z,35.10
2023-02-12T05:17:58.399Z,28.10
2023-02-12T05:20:30.762Z,31.77
2023-02-12T05:23:02.786Z,35.00
2023-02-12T05:25:34.847Z,41.08
2023-02-12T05:28:06.952Z,33.72
2023-02-12T05:30:39.069Z,32.60
2023-02-12T05:33:11.020Z,31.73
2023-02-12T05:35:42.912Z,31.67
2023-02-12T05:38:14.970Z,32.88
2023-02-12T05:40:47.157Z,31.55
2023-02-12T05:43:19.090Z,35.00
2023-02-12T05:45:51.037Z,32.60
2023-02-12T05:48:23.019Z,33.90
2023-02-12T05:50:55.435Z,33.72
2023-02-12T05:53:38.394Z,31.88
2023-02-12T05:56:25.911Z,35.25
2023-02-12T05:59:08.872Z,36.10
2023-02-12T06:01:47.629Z,35.90
2023-02-12T06:04:25.022Z,39.50
2023-02-12T06:07:00.698Z,35.80
2023-02-12T06:09:33.090Z,33.55
2023-02-12T06:12:06.428Z,34.20
2023-02-12T06:14:41.052Z,38.88
2023-02-12T06:17:13.614Z,32.28
2023-02-12T06:19:45.656Z,33.42
2023-02-12T06:22:17.790Z,39.35
2023-02-12T06:24:49.894Z,36.80
2023-02-12T06:27:21.850Z,31.05
2023-02-12T06:29:53.794Z,35.10
2023-02-12T06:32:25.916Z,35.13
2023-02-12T06:34:57.905Z,31.13
2023-02-12T06:37:30.001Z,37.45
2023-02-12T06:40:03.533Z,34.13
2023-02-12T06:42:36.475Z,33.35
2023-02-12T06:45:08.999Z,33.45
2023-02-12T06:47:41.356Z,33.40
2023-02-12T06:50:13.406Z,31.63
2023-02-12T06:52:45.595Z,29.80
2023-02-12T06:55:18.091Z,32.97
2023-02-12T06:57:50.132Z,33.10
2023-02-12T07:00:22.602Z,33.88
2023-02-12T07:02:55.496Z,35.05
2023-02-12T07:05:28.348Z,29.60
2023-02-12T07:08:00.354Z,33.13
2023-02-12T07:10:32.390Z,34.50
2023-02-12T07:13:05.307Z,29.58
2023-02-12T07:15:40.926Z,31.17
2023-02-12T07:18:13.925Z,34.08
2023-02-12T07:20:45.938Z,32.22
2023-02-12T07:23:18.009Z,33.67
2023-02-12T07:26:01.175Z,30.02
2023-02-12T07:28:42.865Z,35.70
2023-02-12T07:31:20.380Z,29.83
2023-02-12T07:33:58.172Z,32.05
2023-02-12T07:36:32.859Z,33.17
2023-02-12T07:39:05.416Z,37.55
2023-02-12T07:41:37.548Z,32.15
2023-02-12T07:44:12.093Z,33.40
2023-02-12T07:46:48.504Z,37.05
2023-02-12T07:49:25.216Z,34.58
2023-02-12T07:51:57.487Z,33.65
2023-02-12T07:54:29.525Z,34.60
2023-02-12T07:57:02.239Z,35.90
2023-02-12T07:59:34.438Z,36.03
2023-02-12T08:02:07.023Z,34.05
2023-02-12T08:04:40.537Z,35.05
2023-02-12T08:07:12.818Z,34.50
2023-02-12T08:09:45.091Z,33.75
2023-02-12T08:12:18.402Z,36.70
2023-02-12T08:14:50.596Z,31.45
2023-02-12T08:17:22.666Z,32.65
2023-02-12T08:19:54.707Z,36.88
2023-02-12T08:22:26.784Z,32.15
2023-02-12T08:24:58.888Z,36.60
2023-02-12T08:27:31.417Z,33.08
2023-02-12T08:30:03.716Z,35.05
2023-02-12T08:32:36.296Z,37.25
2023-02-12T08:35:08.670Z,36.90
2023-02-12T08:37:40.803Z,35.30
2023-02-12T08:40:14.180Z,34.20
2023-02-12T08:42:46.300Z,40.15
2023-02-12T08:45:18.291Z,41.17
2023-02-12T08:47:50.298Z,35.65
2023-02-12T08:50:22.772Z,35.20
2023-02-12T08:52:54.947Z,36.22
2023-02-12T08:55:28.360Z,36.80
2023-02-12T08:58:01.335Z,37.88
2023-02-12T09:00:38.904Z,36.67
2023-02-12T09:03:12.596Z,40.35
2023-02-12T09:05:44.585Z,38.38
2023-02-12T09:08:17.052Z,34.22
2023-02-12T09:10:49.434Z,38.55
2023-02-12T09:13:21.669Z,36.28
2023-02-12T09:15:53.952Z,38.65
2023-02-12T09:18:26.200Z,37.30
2023-02-12T09:21:19.929Z,38.60
2023-02-12T09:23:52.589Z,40.92
2023-02-12T09:26:26.247Z,41.15
2023-02-12T09:29:06.114Z,38.75
2023-02-12T09:31:38.319Z,40.42
2023-02-12T09:34:10.556Z,36.53
2023-02-12T09:36:42.717Z,39.63
2023-02-12T09:39:14.861Z,39.42
2023-02-12T09:42:15.329Z,37.45
2023-02-12T09:45:18.392Z,39.70
2023-02-12T09:47:59.076Z,34.03
2023-02-12T09:51:00.668Z,34.88
2023-02-12T09:53:40.864Z,39.25
2023-02-12T09:56:22.318Z,38.65
2023-02-12T09:59:01.304Z,39.55
2023-02-12T10:01:37.174Z,35.60
2023-02-12T10:04:09.416Z,29.20
2023-02-12T10:06:56.497Z,29.00
2023-02-12T10:09:43.279Z,33.17
2023-02-12T10:12:45.794Z,34.65
2023-02-12T10:15:46.741Z,31.27
2023-02-12T10:18:51.978Z,31.60
2023-02-12T10:22:13.676Z,30.75
2023-02-12T10:25:24.615Z,25.00
2023-02-12T10:28:39.904Z,32.00
2023-02-12T10:31:34.072Z,28.08
2023-02-12T10:34:34.942Z,25.25
2023-02-12T10:37:22.046Z,28.48
2023-02-12T10:40:16.284Z,27.45
2023-02-12T10:42:54.350Z,19.75
2023-02-12T10:45:38.029Z,19.45
2023-02-12T10:48:32.906Z,21.42
2023-02-12T10:51:08.957Z,23.38
2023-02-12T10:54:39.178Z,24.30
2023-02-12T10:57:18.113Z,28.92
2023-02-12T10:59:57.210Z,28.40
2023-02-12T11:03:20.286Z,22.58
2023-02-12T11:05:54.506Z,23.38
2023-02-12T11:08:38.840Z,23.42
2023-02-12T11:11:30.770Z,22.90
2023-02-12T11:14:22.932Z,23.88
2023-02-12T11:17:02.724Z,21.80
2023-02-12T11:19:36.360Z,22.25
2023-02-12T11:22:18.788Z,22.42
2023-02-12T11:25:02.596Z,23.30
2023-02-12T11:27:45.602Z,21.90
2023-02-12T11:30:32.254Z,25.27
2023-02-12T11:33:22.997Z,14.02
2023-02-12T11:36:28.789Z,11.00
2023-02-12T11:39:02.866Z,10.25
2023-02-12T11:41:40.821Z,8.45
2023-02-12T11:44:38.252Z,10.05
2023-02-12T11:47:22.067Z,7.63
2023-02-12T11:50:17.414Z,7.75
2023-02-12T11:53:07.349Z,7.15
2023-02-12T11:55:41.507Z,6.82
2023-02-12T11:58:26.950Z,7.10
2023-02-12T12:01:04.773Z,8.05
2023-02-12T12:04:02.537Z,7.50
2023-02-12T12:07:12.070Z,7.40
2023-02-12T12:10:03.862Z,6.03
2023-02-12T12:12:43.601Z,7.72
2023-02-12T12:15:53.296Z,8.38
2023-02-12T12:19:15.482Z,8.32
2023-02-12T12:22:21.693Z,7.85
2023-02-12T12:25:19.144Z,8.45
2023-02-12T12:28:30.807Z,8.30
2023-02-12T12:31:19.530Z,10.20
2023-02-12T12:34:18.733Z,8.23
2023-02-12T12:37:18.167Z,7.97
2023-02-12T12:40:29.440Z,8.65
2023-02-12T12:43:13.854Z,8.07
2023-02-12T12:46:23.951Z,8.13
2023-02-12T12:49:38.495Z,7.57
2023-02-12T12:53:00.711Z,7.63
2023-02-12T12:55:54.655Z,7.50
2023-02-12T12:58:55.671Z,8.85
2023-02-12T13:01:47.613Z,7.00
2023-02-12T13:05:17.168Z,6.80
2023-02-12T13:08:54.267Z,6.88
2023-02-12T13:11:57.511Z,7.15
2023-02-12T13:15:17.198Z,6.60
2023-02-12T13:18:35.354Z,5.95
2023-02-12T13:21:54.990Z,6.28
2023-02-12T13:24:57.318Z,7.00
2023-02-12T13:28:00.613Z,6.65
2023-02-12T13:30:39.771Z,6.50
2023-02-12T13:33:27.539Z,6.22
2023-02-12T13:36:10.644Z,11.25
2023-02-12T13:39:10.464Z,6.05
2023-02-12T13:42:06.056Z,6.10
2023-02-12T13:45:18.267Z,6.35
2023-02-12T13:48:22.258Z,5.30
2023-02-12T13:51:32.727Z,6.13
2023-02-12T13:54:40.857Z,5.65
2023-02-12T13:57:26.749Z,5.50
2023-02-12T14:00:00.002Z,5.50
2023-02-12T14:02:37.309Z,5.85
2023-02-12T14:05:42.792Z,5.78
2023-02-12T14:08:37.842Z,6.00
2023-02-12T14:11:16.743Z,5.97
2023-02-12T14:14:03.176Z,5.20
2023-02-12T14:16:40.567Z,5.50
2023-02-12T14:19:40.743Z,6.43
2023-02-12T14:22:32.574Z,5.03
2023-02-12T14:25:24.577Z,5.32
2023-02-12T14:28:10.342Z,5.15
2023-02-12T14:31:39.172Z,6.45
2023-02-12T14:34:12.048Z,4.65
2023-02-12T14:37:31.623Z,4.80
2023-02-12T14:40:34.011Z,3.45
2023-02-12T14:43:29.241Z,3.47
2023-02-12T14:46:25.177Z,3.85
2023-02-12T14:49:33.272Z,3.60
2023-02-12T14:52:13.218Z,3.20
2023-02-12T14:55:00.875Z,3.58
2023-02-12T14:57:38.599Z,3.13
2023-02-12T15:00:25.796Z,3.85
2023-02-12T15:03:37.122Z,3.50
2023-02-12T15:06:19.026Z,4.20
2023-02-12T15:09:03.481Z,3.80
2023-02-12T15:11:57.696Z,3.97
2023-02-12T15:14:46.014Z,3.80
2023-02-12T15:17:31.064Z,3.85
2023-02-12T15:20:34.787Z,4.95
2023-02-12T15:23:34.423Z,6.43
2023-02-12T15:26:23.082Z,4.65
2023-02-12T15:28:56.822Z,4.35
2023-02-12T15:31:30.985Z,5.38
2023-02-12T15:34:05.962Z,4.00
2023-02-12T15:36:38.925Z,4.00
2023-02-12T15:39:20.988Z,3.50
2023-02-12T15:41:55.295Z,3.15
2023-02-12T15:44:33.143Z,4.18
2023-02-12T15:47:12.797Z,3.30
2023-02-12T15:49:46.240Z,3.22
2023-02-12T15:52:21.927Z,3.70
2023-02-12T15:55:05.612Z,3.30
2023-02-12T15:57:57.976Z,4.25
2023-02-12T16:00:46.349Z,3.90
2023-02-12T16:03:27.914Z,3.90
2023-02-12T16:06:15.012Z,3.30
2023-02-12T16:08:53.309Z,3.90
2023-02-12T16:11:31.862Z,4.43
2023-02-12T16:14:08.206Z,6.63
2023-02-12T16:16:55.322Z,4.60
2023-02-12T16:19:33.033Z,5.30
2023-02-12T16:22:14.571Z,4.45
2023-02-12T16:24:56.549Z,5.63
2023-02-12T16:27:34.694Z,5.55
2023-02-12T16:30:27.235Z,6.50
2023-02-12T16:33:03.881Z,6.53
2023-02-12T16:35:37.325Z,5.43
2023-02-12T16:38:27.905Z,4.43
2023-02-12T16:41:21.082Z,5.03
2023-02-12T16:44:02.401Z,4.82
2023-02-12T16:46:56.940Z,4.50
2023-02-12T16:49:31.239Z,4.22
2023-02-12T16:52:27.881Z,4.35
2023-02-12T16:55:15.096Z,4.28
2023-02-12T16:57:48.863Z,4.30
2023-02-12T17:00:22.831Z,4.90
2023-02-12T17:02:56.970Z,5.47
2023-02-12T17:05:29.439Z,5.00
2023-02-12T17:08:02.740Z,5.30
2023-02-12T17:10:36.956Z,5.95
2023-02-12T17:13:10.069Z,5.50
2023-02-12T17:15:48.013Z,5.68
2023-02-12T17:18:33.002Z,5.22
2023-02-12T17:21:29.108Z,5.35
2023-02-12T17:24:32.045Z,6.03
2023-02-12T17:27:10.216Z,8.00
2023-02-12T17:29:45.480Z,6.65
2023-02-12T17:32:18.166Z,8.00
2023-02-12T17:34:51.094Z,7.03
2023-02-12T17:37:24.702Z,6.65
2023-02-12T17:39:57.236Z,7.18
2023-02-12T17:42:29.318Z,7.70
2023-02-12T17:45:01.638Z,9.52
2023-02-12T17:47:39.809Z,8.80
2023-02-12T17:50:15.045Z,9.95
2023-02-12T17:52:47.931Z,8.90
2023-02-12T17:55:21.974Z,9.30
2023-02-12T17:57:55.739Z,8.90
2023-02-12T18:00:30.703Z,8.48
2023-02-12T18:03:04.122Z,8.20
2023-02-12T18:05:44.082Z,8.75
2023-02-12T18:08:16.707Z,8.45
2023-02-12T18:10:49.246Z,8.45
2023-02-12T18:13:22.181Z,15.25
2023-02-12T18:15:56.016Z,12.10
2023-02-12T18:18:28.604Z,13.73
2023-02-12T18:21:10.637Z,13.45
2023-02-12T18:23:46.492Z,12.45
2023-02-12T18:26:19.522Z,10.27
2023-02-12T18:28:53.790Z,10.43
2023-02-12T18:31:29.404Z,10.18
2023-02-12T18:34:02.844Z,12.88
2023-02-12T18:36:36.486Z,13.30
2023-02-12T18:39:09.067Z,10.95
2023-02-12T18:41:41.483Z,9.75
2023-02-12T18:44:15.156Z,10.38
2023-02-12T18:46:48.136Z,12.45
2023-02-12T18:49:21.379Z,11.05
2023-02-12T18:51:54.035Z,9.35
2023-02-12T18:54:27.171Z,10.85
2023-02-12T18:57:00.208Z,8.57
2023-02-12T18:59:33.391Z,10.13
2023-02-12T19:02:06.896Z,10.68
2023-02-12T19:04:43.079Z,8.38
2023-02-12T19:07:16.270Z,8.82
2023-02-12T19:09:48.985Z,8.05
2023-02-12T19:12:22.556Z,11.60
2023-02-12T19:14:57.261Z,8.07
2023-02-12T19:17:30.452Z,8.35
2023-02-12T19:20:03.297Z,8.30
2023-02-12T19:22:36.794Z,8.38
2023-02-12T19:25:11.741Z,9.32
2023-02-12T19:27:45.367Z,8.75
2023-02-12T19:30:18.387Z,8.65
2023-02-12T19:32:52.192Z,8.65
2023-02-12T19:35:25.034Z,8.88
2023-02-12T19:37:58.272Z,9.10
2023-02-12T19:40:32.694Z,14.40
2023-02-12T19:43:06.539Z,9.90
2023-02-12T19:45:40.168Z,11.82
2023-02-12T19:48:13.083Z,10.60
2023-02-12T19:50:47.265Z,13.63
2023-02-12T19:53:20.229Z,11.48
2023-02-12T19:55:53.602Z,14.77
2023-02-12T19:58:29.074Z,13.90
2023-02-12T20:01:07.255Z,13.60
2023-02-12T20:03:44.043Z,12.95
2023-02-12T20:06:30.303Z,12.00
2023-02-12T20:09:09.048Z,12.48
2023-02-12T20:11:44.179Z,10.43
2023-02-12T20:14:18.221Z,11.50
2023-02-12T20:16:55.824Z,12.02
2023-02-12T20:19:32.876Z,11.55
2023-02-12T20:22:06.947Z,11.15
2023-02-12T20:24:40.491Z,13.20
2023-02-12T20:27:13.939Z,14.30
2023-02-12T20:29:47.661Z,13.05
2023-02-12T20:32:20.575Z,14.55
2023-02-12T20:34:53.715Z,13.60
2023-02-12T20:37:27.389Z,14.48
2023-02-12T20:40:00.882Z,15.73
2023-02-12T20:42:35.014Z,14.65
2023-02-12T20:45:09.762Z,13.13
2023-02-12T20:47:42.742Z,12.88
2023-02-12T20:50:16.891Z,13.50
2023-02-12T20:52:50.612Z,14.35
2023-02-12T20:55:23.706Z,13.27
2023-02-12T20:57:56.752Z,12.60
2023-02-12T21:00:30.367Z,14.40
2023-02-12T21:03:04.934Z,14.82
2023-02-12T21:05:38.749Z,13.65
2023-02-12T21:08:12.001Z,14.70
2023-02-12T21:10:44.847Z,12.63
2023-02-12T21:13:17.523Z,14.00
2023-02-12T21:15:50.071Z,16.88
2023-02-12T21:18:25.676Z,14.90
2023-02-12T21:21:03.374Z,18.10
2023-02-12T21:23:38.689Z,15.00
2023-02-12T21:26:17.260Z,13.60
2023-02-12T21:28:52.070Z,15.25
2023-02-12T21:31:33.874Z,15.90
2023-02-12T21:34:12.785Z,17.90
2023-02-12T21:36:48.905Z,17.60
2023-02-12T21:39:27.423Z,15.65
2023-02-12T21:42:02.929Z,15.82
2023-02-12T21:44:36.440Z,18.38
2023-02-12T21:47:10.157Z,20.27
2023-02-12T21:49:42.276Z,17.40
2023-02-12T21:52:14.431Z,16.08
2023-02-12T21:54:47.471Z,17.52
2023-02-12T21:57:21.847Z,18.10
2023-02-12T21:59:54.036Z,16.17
2023-02-12T22:02:26.105Z,17.08
2023-02-12T22:04:58.306Z,16.65
2023-02-12T22:07:30.453Z,15.90
2023-02-12T22:10:02.673Z,17.55
2023-02-12T22:12:39.057Z,16.90
2023-02-12T22:15:11.142Z,17.48
2023-02-12T22:17:43.393Z,17.20
2023-02-12T22:20:24.603Z,17.05
2023-02-12T22:22:56.949Z,16.08
2023-02-12T22:25:29.159Z,17.42
2023-02-12T22:28:01.345Z,15.10
2023-02-12T22:30:33.638Z,16.60
2023-02-12T22:33:06.522Z,16.20
2023-02-12T22:35:38.692Z,17.35
2023-02-12T22:38:10.883Z,16.08
2023-02-12T22:40:44.004Z,18.73
2023-02-12T22:43:16.054Z,16.67
2023-02-12T22:45:48.131Z,16.77
2023-02-12T22:48:20.560Z,16.83
2023-02-12T22:50:52.609Z,15.50
2023-02-12T22:53:26.416Z,17.10
2023-02-12T22:56:03.688Z,18.92
2023-02-12T22:58:38.633Z,16.95
2023-02-12T23:01:30.337Z,15.57
2023-02-12T23:04:02.602Z,19.15
2023-02-12T23:06:34.821Z,19.98
2023-02-12T23:09:06.891Z,20.10
2023-02-12T23:11:42.854Z,17.52
2023-02-12T23:14:15.403Z,17.25
2023-02-12T23:16:48.232Z,16.98
2023-02-12T23:19:20.457Z,15.70
2023-02-12T23:21:52.649Z,16.30
2023-02-12T23:24:25.862Z,17.42
2023-02-12T23:26:58.035Z,17.88
2023-02-12T23:29:30.345Z,15.23
2023-02-12T23:32:02.581Z,17.98
2023-02-12T23:34:34.942Z,17.30
2023-02-12T23:37:07.087Z,14.95
2023-02-12T23:39:39.305Z,19.05
2023-02-12T23:42:37.490Z,15.48
2023-02-12T23:45:10.023Z,19.48
2023-02-12T23:47:42.166Z,16.35
2023-02-12T23:50:14.153Z,18.23
2023-02-12T23:52:46.600Z,16.67
2023-02-12T23:55:20.299Z,17.33
2023-02-12T23:57:52.405Z,21.73
